| time (UTC) | temp F | wind direction | speed knots | gust knots | rain 1hr in | rain 24hr in | rain mn in | humidity % | barometer mb |
| 20260906193035 | 96 | 342 | 0.0 | 0.9 | 0.00 | 0.00 | 0.00 | 44 | 1013.8 |
| 20260906192117 | 95 | 27 | 0.0 | 0.9 | 0.00 | 0.00 | 0.00 | 48 | 1014.1 |
| 20260906192100 | 93 | 65 | 0.0 | 0.0 | 0.00 | 0.00 | 0.00 | 49 | 1014.4 |
| 20260906192052 | 95 | 75 | 0.0 | 1.7 | 0.00 | 0.00 | 0.00 | 47 | 1016.1 |
| 20260906170004 | 96 | 74 | 0.0 | 0.0 | 0.00 | 0.00 | 0.00 | 42 | 1016.3 |
| 20260906164507 | 96 | 228 | 0.0 | 0.9 | 0.00 | 0.00 | 0.00 | 43 | 1016.4 |
| 20260906163004 | 94 | 19 | 0.0 | 0.9 | 0.00 | 0.00 | 0.00 | 46 | 1016.6 |
| 20260906161508 | 94 | 69 | 0.0 | 0.9 | 0.00 | 0.00 | 0.00 | 47 | 1016.6 |
| 20260906160004 | 92 | 300 | 0.0 | 1.7 | 0.00 | 0.00 | 0.00 | 50 | 1016.5 |
| 20260906154506 | 90 | 60 | 0.0 | 0.9 | 0.00 | 0.00 | 0.00 | 54 | 1016.6 |
| 20260906153006 | 87 | 319 | 0.0 | 0.9 | 0.00 | 0.00 | 0.00 | 59 | 1016.5 |
| 20260906151506 | 85 | 254 | 0.0 | 0.9 | 0.00 | 0.00 | 0.00 | 58 | 1016.4 |
| 20260906150004 | 85 | 257 | 0.0 | 0.9 | 0.00 | 0.00 | 0.00 | 61 | 1016.4 |
| 20260906144506 | 85 | 50 | 0.0 | 0.9 | 0.00 | 0.00 | 0.00 | 61 | 1016.0 |
| 20260906143006 | 85 | 288 | 0.0 | 0.9 | 0.00 | 0.00 | 0.00 | 59 | 1015.9 |
| 20260906141507 | 84 | 72 | 0.0 | 0.0 | 0.00 | 0.00 | 0.00 | 63 | 1015.9 |
| 20260906140005 | 81 | 110 | 0.0 | 0.0 | 0.00 | 0.00 | 0.00 | 68 | 1015.9 |
| 20260906134507 | 79 | 114 | 0.0 | 0.0 | 0.00 | 0.00 | 0.00 | 69 | 1015.9 |
| 20260906133009 | 77 | 114 | 0.0 | 0.0 | 0.00 | 0.00 | 0.00 | 73 | 1015.9 |
| 20260906131509 | 74 | 114 | 0.0 | 0.0 | 0.00 | 0.00 | 0.00 | 78 | 1015.6 |
| 20260906130019 | 72 | 114 | 0.0 | 0.0 | 0.00 | 0.00 | 0.00 | 81 | 1015.5 |
| 20260906124511 | 71 | 115 | 0.0 | 0.0 | 0.00 | 0.00 | 0.00 | 82 | 1015.3 |
| 20260906123018 | 71 | 115 | 0.0 | 0.0 | 0.00 | 0.00 | 0.00 | 83 | 1015.0 |
| 20260906121530 | 71 | 115 | 0.0 | 0.0 | 0.00 | 0.00 | 0.00 | 84 | 1014.8 |
| 20260906120013 | 71 | 115 | 0.0 | 0.0 | 0.00 | 0.00 | 0.00 | 85 | 1014.4 |
| 20260906114523 | 71 | 111 | 0.0 | 0.0 | 0.00 | 0.00 | 0.00 | 84 | 1014.4 |
| 20260906113014 | 72 | 111 | 0.0 | 0.0 | 0.00 | 0.00 | 0.00 | 83 | 1014.2 |
| 20260906111513 | 72 | 111 | 0.0 | 0.0 | 0.00 | 0.00 | 0.00 | 83 | 1014.1 |
| 20260906110017 | 72 | 111 | 0.0 | 0.0 | 0.00 | 0.00 | 0.00 | 81 | 1014.0 |
| 20260906104515 | 72 | 111 | 0.0 | 0.0 | 0.00 | 0.00 | 0.00 | 82 | 1013.9 |
| 20260906103017 | 72 | 111 | 0.0 | 0.0 | 0.00 | 0.00 | 0.00 | 80 | 1013.9 |
| 20260906101521 | 73 | 111 | 0.0 | 0.0 | 0.00 | 0.00 | 0.00 | 79 | 1013.9 |
| 20260906100028 | 74 | 111 | 0.0 | 0.0 | 0.00 | 0.00 | 0.00 | 78 | 1013.7 |
| 20260906094518 | 73 | 111 | 0.0 | 0.0 | 0.00 | 0.00 | 0.00 | 79 | 1013.7 |
| 20260906093022 | 73 | 111 | 0.0 | 0.0 | 0.00 | 0.00 | 0.00 | 79 | 1013.8 |
| 20260906091525 | 73 | 111 | 0.0 | 0.0 | 0.00 | 0.00 | 0.00 | 79 | 1013.9 |
| 20260906090025 | 73 | 111 | 0.0 | 0.0 | 0.00 | 0.00 | 0.00 | 76 | 1013.9 |
| 20260906084520 | 73 | 111 | 0.0 | 0.0 | 0.00 | 0.00 | 0.00 | 76 | 1013.8 |
| 20260906083024 | 73 | 111 | 0.0 | 0.0 | 0.00 | 0.00 | 0.00 | 76 | 1013.5 |
| 20260906081527 | 73 | 111 | 0.0 | 0.0 | 0.00 | 0.00 | 0.00 | 75 | 1013.8 |
| 20260906080031 | 74 | 111 | 0.0 | 0.0 | 0.00 | 0.00 | 0.00 | 75 | 1013.7 |
| 20260906074523 | 74 | 111 | 0.0 | 0.0 | 0.00 | 0.00 | 0.00 | 75 | 1013.8 |
| 20260906073023 | 75 | 111 | 0.0 | 0.0 | 0.00 | 0.00 | 0.00 | 73 | 1013.6 |
| 20260906071504 | 75 | 111 | 0.0 | 0.0 | 0.00 | 0.00 | 0.00 | 73 | 1013.5 |
| 20260906070006 | 75 | 111 | 0.0 | 0.0 | 0.00 | 0.00 | 0.00 | 72 | 1013.5 |
| 20260906064512 | 76 | 111 | 0.0 | 0.0 | 0.00 | 0.00 | 0.00 | 72 | 1013.5 |
| 20260906063018 | 76 | 111 | 0.0 | 0.0 | 0.00 | 0.00 | 0.00 | 71 | 1013.3 |
| 20260906061502 | 77 | 111 | 0.0 | 0.0 | 0.00 | 0.00 | 0.00 | 70 | 1013.4 |
| 20260906060004 | 77 | 111 | 0.0 | 0.0 | 0.00 | 0.00 | 0.00 | 67 | 1013.5 |
| 20260906054507 | 78 | 111 | 0.0 | 0.0 | 0.00 | 0.00 | 0.00 | 67 | 1013.5 |
| 20260906053013 | 79 | 111 | 0.0 | 0.0 | 0.00 | 0.00 | 0.00 | 65 | 1013.3 |
| 20260906051523 | 79 | 111 | 0.0 | 0.0 | 0.00 | 0.00 | 0.00 | 65 | 1013.3 |
| 20260906050004 | 79 | 111 | 0.0 | 0.0 | 0.00 | 0.00 | 0.00 | 65 | 1013.3 |
| 20260906044507 | 79 | 180 | 0.0 | 0.0 | 0.00 | 0.00 | 0.00 | 64 | 1013.3 |
| 20260906043026 | 80 | 180 | 0.0 | 0.0 | 0.00 | 0.00 | 0.00 | 62 | 1013.3 |
| 20260906041519 | 81 | 180 | 0.0 | 0.0 | 0.00 | 0.00 | 0.00 | 61 | 1013.4 |
| 20260906040026 | 80 | 180 | 0.0 | 0.0 | 0.00 | 0.00 | 0.00 | 62 | 1013.3 |
| 20260906034503 | 81 | 180 | 0.0 | 0.0 | 0.00 | 0.00 | 0.00 | 62 | 1013.1 |
| 20260906033007 | 82 | 180 | 0.0 | 0.0 | 0.00 | 0.00 | 0.00 | 59 | 1013.1 |
| 20260906031520 | 83 | 180 | 0.0 | 0.0 | 0.00 | 0.00 | 0.00 | 58 | 1012.9 |
| 20260906030018 | 83 | 180 | 0.0 | 0.0 | 0.00 | 0.00 | 0.00 | 58 | 1012.7 |
| 20260906024527 | 83 | 180 | 0.0 | 0.0 | 0.00 | 0.00 | 0.00 | 57 | 1012.5 |
| 20260906023003 | 83 | 180 | 0.0 | 0.0 | 0.00 | 0.00 | 0.00 | 57 | 1012.3 |
| 20260906021510 | 83 | 180 | 0.0 | 0.0 | 0.00 | 0.00 | 0.00 | 57 | 1012.0 |
| 20260906020017 | 85 | 180 | 0.0 | 0.0 | 0.00 | 0.00 | 0.00 | 55 | 1011.6 |
| 20260906014523 | 87 | 180 | 0.0 | 0.0 | 0.00 | 0.00 | 0.00 | 52 | 1011.4 |
| 20260906013028 | 88 | 188 | 0.0 | 0.0 | 0.00 | 0.00 | 0.00 | 51 | 1011.2 |
| 20260906011504 | 89 | 120 | 0.0 | 0.0 | 0.00 | 0.00 | 0.00 | 49 | 1011.1 |
| 20260906010012 | 91 | 128 | 0.0 | 0.0 | 0.00 | 0.00 | 0.00 | 47 | 1011.2 |
| 20260906004520 | 92 | 141 | 0.0 | 0.0 | 0.00 | 0.00 | 0.00 | 46 | 1011.3 |
| 20260906003024 | 93 | 89 | 0.0 | 0.0 | 0.00 | 0.00 | 0.00 | 43 | 1011.4 |
| 20260906001545 | 94 | 109 | 0.0 | 0.0 | 0.00 | 0.00 | 0.00 | 43 | 1011.3 |
| 20260906000036 | 95 | 103 | 0.0 | 0.0 | 0.00 | 0.00 | 0.00 | 42 | 1011.5 |
| 20260905234514 | 95 | 111 | 0.0 | 0.0 | 0.00 | 0.00 | 0.00 | 42 | 1011.3 |
| 20260905233023 | 96 | 122 | 0.0 | 0.9 | 0.00 | 0.00 | 0.00 | 42 | 1011.3 |
| 20260905231528 | 96 | 114 | 0.0 | 0.9 | 0.00 | 0.00 | 0.00 | 42 | 1011.3 |
| 20260905230037 | 96 | 113 | 0.0 | 2.6 | 0.00 | 0.00 | 0.00 | 41 | 1011.4 |
| 20260905224534 | 96 | 89 | 0.0 | 1.7 | 0.00 | 0.00 | 0.00 | 41 | 1011.3 |
| 20260905223032 | 96 | 88 | 0.0 | 0.9 | 0.00 | 0.00 | 0.00 | 43 | 1011.2 |
| 20260905221524 | 96 | 51 | 0.0 | 0.9 | 0.00 | 0.00 | 0.00 | 42 | 1011.4 |
| 20260905220025 | 96 | 127 | 0.0 | 0.9 | 0.00 | 0.00 | 0.00 | 41 | 1011.4 |
| 20260905214536 | 97 | 72 | 0.0 | 0.9 | 0.00 | 0.00 | 0.00 | 40 | 1011.3 |
| 20260905213034 | 98 | 180 | 0.0 | 0.9 | 0.00 | 0.00 | 0.00 | 38 | 1011.5 |
| 20260905211515 | 100 | 122 | 0.0 | 3.5 | 0.00 | 0.00 | 0.00 | 37 | 1011.4 |
| 20260905210033 | 101 | 113 | 0.0 | 3.5 | 0.00 | 0.00 | 0.00 | 37 | 1011.5 |
| 20260905204533 | 102 | 41 | 0.0 | 4.3 | 0.00 | 0.00 | 0.00 | 34 | 1011.4 |
| 20260905203030 | 103 | 58 | 0.0 | 4.3 | 0.00 | 0.00 | 0.00 | 35 | 1011.7 |
| 20260905201520 | 103 | 133 | 0.9 | 6.1 | 0.00 | 0.00 | 0.00 | 35 | 1012.0 |
| 20260905200030 | 103 | 25 | 0.0 | 5.2 | 0.00 | 0.00 | 0.00 | 36 | 1012.2 |
| 20260905194504 | 102 | 117 | 0.0 | 4.3 | 0.00 | 0.00 | 0.00 | 38 | 1012.5 |